Main page
METAR-TAF:

METAR-TAF

Airports :

Jersey Airport

Jersey,

latitude: 49-13N, longitude: 002-12W, elevation: 84 m

Current weather observation

The report was made 11 minutes ago, at 20:50 UTC
Wind 3 kt from the South/Southeast
Temperature 13°C
Humidity 82%
Pressure 1010 hPa
Visibility 10 km or more
Few clouds at a height of 3800 ft

METAR: EGJJ 252050Z 16003KT 9999 FEW038 13/10 Q1010

Time: 22:01 (21:01 UTC)

Forecast

The report was made 1 hour and 4 minutes ago, at 19:57 UTC
Forecast valid from 25 at 21 UTC to 26 at 06 UTC
Wind 11 kt from the Southwest
Visibility 10 km or more
Few clouds at a height of 2300 ft
Probability 30% :
Temporary
from 25 at 21 UTC to 26 at 01 UTC
Scattered clouds at a height of 1800 ft, Cumulonimbus.

TAF: EGJJ 251957Z 2521/2606 22011KT 9999 FEW023 PROB30 TEMPO 2521/2601 SCT018CB

Weather observations and forecasts of more than 4000 airports (METAR and TAF reports).

The available stations are represented by yellow and red dots on the map.

Hover mouse over dot to see the name of the station.

Then click to see weather observations and forecasts.

To change the map : click on the green buttons with a black cross to zoom in, on the green button with a dash to zoom out, or on the green arrows for adjacent maps.


METAR-TAF: